»·PEaware :: N420FE KSNA-KBUR

N420FE :: KSNA-KBUR

FLIGHT INFORMATION

Flight Status: Arrived
Operator: Privately registered:
United States
More flights under this callsign
Pilot: Julian G. (20224)
Aircraft: CESSNA 172 SKYHAWK
(C172)
More flights by this aircraft type
Origin: KSNA John Wayne-Orange Co
United States
Destination: KBUR Bob Hope-Burbank
United States
More flights between these airports :: More routes between these airports
Route: SLI V23 POPPR SMO125R SMO SMO311R SILEX
File this flight plan on PilotEdge
Remarks: I 3
Altitude:
(Current/Filed)
4,000ft
Speed:
(Current/Filed)
115kts
Departed: 08-Oct-18 12:29 PM
Arrived: 08-Oct-18 01:08 PM
Distance/Time
Traveled:
40nm/0:38
Distance/Time
To Go:
Arrived

Flight Plot

Page will automatically refresh every two minutes.


Map Options




Map Legend


Flown Route
Filed Route
Departure Airport
Arrival Airport
Navaid (VOR, NDB)
Fix

Horizontal Profiles

Position Reports

Time Latitude Longitude Heading Altitude Ground
Speed
08-Oct-18 12:10 33.666148 -117.873432 244 60ft 0kts
08-Oct-18 12:11 33.666148 -117.873432 244 60ft 0kts
08-Oct-18 12:12 33.666148 -117.873432 244 60ft 0kts
08-Oct-18 12:13 33.666148 -117.873432 244 60ft 0kts
08-Oct-18 12:14 33.666148 -117.873432 244 60ft 0kts
08-Oct-18 12:15 33.666148 -117.873432 244 60ft 0kts
08-Oct-18 12:16 33.666148 -117.873432 244 60ft 0kts
08-Oct-18 12:17 33.666148 -117.873432 244 60ft 0kts
08-Oct-18 12:18 33.666148 -117.873432 244 60ft 0kts
08-Oct-18 12:19 33.666148 -117.873432 244 60ft 0kts
08-Oct-18 12:20 33.666148 -117.873432 244 60ft 0kts
08-Oct-18 12:21 33.666148 -117.873432 244 60ft 0kts
08-Oct-18 12:22 33.666387 -117.873440 8 60ft 7kts
08-Oct-18 12:23 33.669660 -117.870385 40 60ft 19kts
08-Oct-18 12:24 33.673608 -117.867095 338 60ft 8kts
08-Oct-18 12:25 33.676947 -117.865308 25 60ft 17kts
08-Oct-18 12:26 33.679948 -117.863655 302 60ft 0kts
08-Oct-18 12:27 33.679948 -117.863655 302 60ft 0kts
08-Oct-18 12:28 33.679948 -117.863655 302 60ft 0kts
08-Oct-18 12:29 33.679948 -117.863655 302 60ft 0kts
08-Oct-18 12:30 33.679192 -117.864749 206 60ft 36kts
08-Oct-18 12:31 33.661433 -117.879853 229 883ft 79kts
08-Oct-18 12:32 33.645932 -117.902149 230 1726ft 93kts
08-Oct-18 12:33 33.627011 -117.929370 230 2000ft 117kts
08-Oct-18 12:34 33.605917 -117.959719 231 1999ft 118kts
08-Oct-18 12:35 33.584963 -117.989807 231 1999ft 117kts
08-Oct-18 12:36 33.572666 -118.022494 302 1992ft 116kts
08-Oct-18 12:37 33.598263 -118.046809 320 2023ft 119kts
08-Oct-18 12:38 33.624368 -118.069665 320 2520ft 115kts
08-Oct-18 12:39 33.649664 -118.091454 320 3158ft 106kts
08-Oct-18 12:40 33.672246 -118.110668 320 3941ft 96kts
08-Oct-18 12:41 33.696197 -118.134300 317 4002ft 117kts
08-Oct-18 12:42 33.720906 -118.159735 317 4002ft 115kts
08-Oct-18 12:43 33.744477 -118.184453 317 4003ft 112kts
08-Oct-18 12:44 33.767502 -118.209083 317 4004ft 112kts
08-Oct-18 12:45 33.790612 -118.234134 317 4005ft 114kts
08-Oct-18 12:46 33.814179 -118.259371 319 4006ft 115kts
08-Oct-18 12:47 33.838040 -118.283712 319 4007ft 114kts
08-Oct-18 12:48 33.861397 -118.307209 319 4007ft 114kts
08-Oct-18 12:49 33.884722 -118.330607 319 4008ft 114kts
08-Oct-18 12:50 33.908793 -118.354792 318 4008ft 116kts
08-Oct-18 12:51 33.932612 -118.378714 318 4008ft 117kts
08-Oct-18 12:52 33.950525 -118.396732 318 4008ft 117kts
08-Oct-18 12:53 33.975229 -118.421589 318 4008ft 117kts
08-Oct-18 12:54 33.999923 -118.446452 318 4008ft 117kts
08-Oct-18 12:55 34.023126 -118.473763 311 4008ft 116kts
08-Oct-18 12:56 34.045218 -118.502439 311 4008ft 116kts
08-Oct-18 12:57 34.067489 -118.530871 311 4008ft 116kts
08-Oct-18 12:58 34.090088 -118.559096 311 4015ft 117kts
08-Oct-18 12:59 34.110121 -118.583634 311 4016ft 118kts
08-Oct-18 13:00 34.135776 -118.606911 321 4015ft 121kts
08-Oct-18 13:01 34.163455 -118.630446 321 4013ft 122kts
08-Oct-18 13:02 34.192108 -118.634879 56 4007ft 123kts
08-Oct-18 13:03 34.201058 -118.597113 95 4010ft 119kts
08-Oct-18 13:04 34.200083 -118.556499 93 3776ft 127kts
08-Oct-18 13:05 34.199590 -118.514578 92 3143ft 124kts
08-Oct-18 13:06 34.199132 -118.473625 89 2477ft 118kts
08-Oct-18 13:07 34.198711 -118.434699 93 1847ft 120kts
08-Oct-18 13:08 34.198247 -118.397215 95 1244ft 96kts
08-Oct-18 13:09 34.198060 -118.373963 96 876ft 60kts
08-Oct-18 13:10 34.197521 -118.360445 130 738ft 13kts
08-Oct-18 13:11 34.197088 -118.360294 178 738ft 0kts
08-Oct-18 13:12 34.196843 -118.362475 266 738ft 9kts
08-Oct-18 13:13 34.195638 -118.362928 359 738ft 0kts
08-Oct-18 13:14 34.195638 -118.362928 359 738ft 0kts
08-Oct-18 13:15 34.195638 -118.362928 359 738ft 0kts
08-Oct-18 13:16 34.195638 -118.362928 359 738ft 0kts
08-Oct-18 13:17 34.195638 -118.362928 359 738ft 0kts
08-Oct-18 13:18 34.195638 -118.362928 359 738ft 0kts
08-Oct-18 13:19 34.195638 -118.362928 359 738ft 0kts
08-Oct-18 13:20 34.195638 -118.362928 359 738ft 0kts
08-Oct-18 13:21 34.195638 -118.362928 359 738ft 0kts
08-Oct-18 13:22 34.195638 -118.362928 359 738ft 0kts
08-Oct-18 13:23 34.195638 -118.362928 359 738ft 0kts
08-Oct-18 13:24 34.195638 -118.362928 359 738ft 0kts

Navigation Log

Ident Type
Flight plan parsing failed, navigation log unavailable